METAR UND TAF INFORMATION
EFTP 080920Z 16004KT 9999 FEW048 18/06 Q1022

 FLUGHAFENKARTE

 RUNWAY INFORMATION
Runway 06 Runway length 8858 ft Runway width 148 ft
Runway elevation 390 ft Runway displaced threshold 0 ft Runway heading 64
Runway 24 Runway length 8858 ft Runway width 148 ft
Runway elevation 366 ft Runway displaced threshold 0 ft Runway heading 244

 AIRPORT FREQUENCIES
Type APP Name PIRKKALA A Frequency 126.2 MHZ
Type ATIS Name ATIS Frequency 133.55 MHZ
Type TWR Name PIRKKALA T Frequency 118.7 MHZ

 AIRPORT NEAR NAVIGATION AIDS
Type VOR-DME Name Pirkka Frequency 116200 KHZ